Swinomish — WC5223 — position and weather

sailwx.info

Track history (hours):
 
Tides and Currents Weather Stations Pressure Air Temp Water Temp Dewpoint Dewpoint Depression Visibility Wind Speed Wind Dir Waves Ship Positions

Swinomish

Owner: DUNLAP TOWING CO, LA CONNER, WA. More information available from US FCC via Universal Licensing System and Coast Guard Vessel Documentation Center.

Last reported at 2014-Oct-26 04:31 UTC. Time now 2014-Oct-26 06:05 UTC.
Position N 48°24' W 122°30'.

Length 15 m; draft 3.5 m.

Type: Tug. MMSI: 366972050.

Date/timePositionNaut miles runAvg speedWind from/ knotsBaromVisibWave heightAir tempDewpointWater temp
2014-Oct-26 04:31N 48°24' W 122°30'0 0.0
2014-Oct-26 03:33N 48°24' W 122°30'0 0.0
2014-Oct-26 02:32N 48°24' W 122°30'0 0.0
2014-Oct-26 01:33N 48°24' W 122°30'0 0.0
2014-Oct-26 00:33N 48°24' W 122°30'0 0.0
2014-Oct-25 23:33N 48°24' W 122°30'0 0.0
2014-Oct-25 21:27N 48°24' W 122°30'0 0.0
2014-Oct-25 20:14N 48°24' W 122°30'0 0.0
2014-Oct-25 19:33N 48°24' W 122°30'0 0.0
2014-Oct-25 18:31N 48°24' W 122°30'0 0.0
2014-Oct-25 17:33N 48°24' W 122°30'0 0.0
2014-Oct-25 16:33N 48°24' W 122°30'0 0.0
2014-Oct-25 15:33N 48°24' W 122°30'0 0.0
2014-Oct-25 14:33N 48°24' W 122°30'0 0.0
2014-Oct-25 13:33N 48°24' W 122°30'19 8.0
2014-Oct-25 11:10N 48°05' W 122°26'711.3
2014-Oct-25 10:33N 48°01' W 122°18'4 3.9
2014-Oct-25 09:33N 47°59' W 122°13'0 0.0
2014-Oct-25 08:33N 47°59' W 122°13'0 0.0
2014-Oct-25 07:33N 47°59' W 122°13'0 0.0
2014-Oct-25 06:33N 47°59' W 122°13'0 0.0
2014-Oct-25 05:33N 47°59' W 122°13'0 0.0
2014-Oct-25 04:33N 47°59' W 122°13'0 0.1
2014-Oct-25 03:33N 47°59' W 122°13'1 1.1
2014-Oct-25 02:33N 47°58' W 122°15'1 1.3
2014-Oct-25 01:33N 47°59' W 122°16'3 2.7
2014-Oct-25 00:32N 48°01' W 122°18'2 2.0
2014-Oct-24 23:33N 48°02' W 122°21'1 1.5
2014-Oct-24 22:33N 48°03' W 122°23'1 1.4
2014-Oct-24 21:33N 48°04' W 122°24'2 1.8
2014-Oct-24 20:32N 48°05' W 122°26'5 1.6
2014-Oct-24 17:16N 48°09' W 122°32'6 1.8
2014-Oct-24 14:05N 48°14' W 122°33'1 1.6
2014-Oct-24 13:32N 48°15' W 122°33'1 1.4
2014-Oct-24 12:32N 48°16' W 122°31'1 1.0
2014-Oct-24 11:33N 48°17' W 122°30'1 0.8
2014-Oct-24 10:33N 48°18' W 122°30'1 0.9
2014-Oct-24 09:31N 48°19' W 122°30'2 1.7
2014-Oct-24 08:30N 48°20' W 122°32'3 2.9
2014-Oct-24 07:31N 48°22' W 122°34'3 2.7
2014-Oct-24 06:29N 48°25' W 122°36'2 1.7
2014-Oct-24 05:08N 48°24' W 122°39'1 0.8
2014-Oct-24 04:18N 48°25' W 122°40'1 0.6
2014-Oct-24 03:26N 48°25' W 122°41'2 1.7
2014-Oct-24 02:33N 48°26' W 122°42'3 2.9
2014-Oct-24 01:33N 48°29' W 122°43'2 1.8
2014-Oct-24 00:33N 48°30' W 122°45'1 1.2
2014-Oct-23 23:33N 48°31' W 122°46'1 1.3
2014-Oct-23 22:33N 48°32' W 122°48'1 0.8
2014-Oct-23 21:33N 48°32' W 122°49'1 0.7
2014-Oct-23 20:33N 48°32' W 122°50'0 0.3
2014-Oct-23 19:33N 48°32' W 122°50'0 0.4
2014-Oct-23 18:33N 48°32' W 122°50'1 1.0
2014-Oct-23 17:33N 48°33' W 122°51'1 1.4
2014-Oct-23 16:33N 48°34' W 122°52'1 1.2
2014-Oct-23 15:33N 48°35' W 122°53'1 1.5
2014-Oct-23 14:33N 48°35' W 122°56'2 1.6
2014-Oct-23 13:33N 48°36' W 122°58'1 1.0
2014-Oct-23 12:33N 48°36' W 122°59'1 0.9
2014-Oct-23 11:32N 48°36' W 123°01'1 0.6
2014-Oct-23 10:33N 48°36' W 123°00'0 0.0
2014-Oct-23 09:33N 48°36' W 123°00'0 0.0
2014-Oct-23 08:30N 48°36' W 123°00'0 0.0
2014-Oct-23 07:33N 48°36' W 123°00'0 0.0
2014-Oct-23 06:33N 48°36' W 123°00'0 0.0
2014-Oct-23 05:32N 48°36' W 123°00'0 0.0
2014-Oct-23 04:33N 48°36' W 123°00'0 0.0
2014-Oct-23 03:33N 48°36' W 123°00'0 0.0
2014-Oct-23 02:33N 48°36' W 123°00'0 0.0
2014-Oct-23 01:25N 48°36' W 123°00'0 0.0
2014-Oct-23 00:09N 48°36' W 123°00'0 0.0
2014-Oct-22 23:24N 48°36' W 123°00'0 0.0
2014-Oct-22 22:31N 48°36' W 123°00'0 0.0
2014-Oct-22 21:33N 48°36' W 123°00'0 0.0
2014-Oct-22 20:29N 48°36' W 123°00'0 0.0
2014-Oct-22 19:33N 48°36' W 123°00'0 0.0
2014-Oct-22 18:26N 48°36' W 123°00'0 0.0
2014-Oct-22 17:23N 48°36' W 123°00'0 0.0
2014-Oct-22 16:24N 48°36' W 123°00'0 0.0
2014-Oct-22 15:33N 48°36' W 123°00'0 0.0
2014-Oct-22 14:31N 48°36' W 123°00'0 0.0
2014-Oct-22 13:33N 48°36' W 123°00'0 0.0
2014-Oct-22 12:33N 48°36' W 123°00'0 0.0
2014-Oct-22 11:33N 48°36' W 123°00'0 0.0
2014-Oct-22 10:31N 48°36' W 123°00'0 0.0
2014-Oct-22 09:33N 48°36' W 123°00'0 0.0
2014-Oct-22 08:33N 48°36' W 123°00'0 0.0
2014-Oct-22 07:33N 48°36' W 123°00'0 0.0
2014-Oct-22 06:33N 48°36' W 123°00'0 0.0
2014-Oct-22 05:33N 48°36' W 123°00'0 0.0
2014-Oct-22 04:33N 48°36' W 123°00'0 0.0
2014-Oct-22 03:33N 48°36' W 123°00'0 0.0
2014-Oct-22 02:33N 48°36' W 123°00'0 0.0
2014-Oct-22 01:33N 48°36' W 123°00'0 0.0
2014-Oct-22 00:33N 48°36' W 123°00'0 0.0
2014-Oct-21 23:33N 48°36' W 123°00'0 0.0
2014-Oct-21 22:33N 48°36' W 123°00'0 0.0
2014-Oct-21 21:33N 48°36' W 123°00'0 0.0
2014-Oct-21 20:33N 48°36' W 123°00'0 0.0
2014-Oct-21 19:33N 48°36' W 123°00'0 0.0
2014-Oct-21 18:33N 48°36' W 123°00'0 0.0
2014-Oct-21 17:33N 48°36' W 123°00'0 0.0
2014-Oct-21 16:33N 48°36' W 123°00'0 0.0
2014-Oct-21 15:33N 48°36' W 123°00'0 0.0
2014-Oct-21 14:33N 48°36' W 123°00'0 0.0
2014-Oct-21 13:33N 48°36' W 123°00'0 0.0
2014-Oct-21 12:33N 48°36' W 123°00'0 0.0
2014-Oct-21 11:33N 48°36' W 123°00'0 0.0
2014-Oct-21 10:33N 48°36' W 123°00'0 0.0
2014-Oct-21 09:33N 48°36' W 123°00'0 0.0
2014-Oct-21 08:33N 48°36' W 123°00'0 0.0
2014-Oct-21 07:33N 48°36' W 123°00'0 0.0
2014-Oct-21 06:33N 48°36' W 123°00'0 0.0
2014-Oct-21 05:33N 48°36' W 123°00'0 0.0
2014-Oct-21 04:33N 48°36' W 123°00'0 0.0
2014-Oct-21 03:33N 48°36' W 123°00'0 0.0
2014-Oct-21 02:33N 48°36' W 123°00'1 1.0
2014-Oct-21 01:33N 48°37' W 123°02'2 1.8
2014-Oct-21 00:33N 48°38' W 123°02'2 2.4
2014-Oct-20 23:33N 48°40' W 122°60'2 1.9
2014-Oct-20 22:33N 48°42' W 122°59'2 1.7
2014-Oct-20 21:33N 48°44' W 122°59'2 2.0
2014-Oct-20 20:29N 48°44' W 123°03'3 3.1
2014-Oct-20 19:23N 48°42' W 123°07'1 1.6
2014-Oct-20 18:33N 48°43' W 123°09'1 0.9
2014-Oct-20 17:33N 48°44' W 123°09'1 1.1
2014-Oct-20 16:33N 48°45' W 123°09'1 1.1
2014-Oct-20 15:33N 48°45' W 123°10'1 0.9
2014-Oct-20 14:33N 48°46' W 123°12'1 0.7
2014-Oct-20 13:33N 48°46' W 123°13'1 0.9
2014-Oct-20 12:33N 48°47' W 123°14'1 1.1
2014-Oct-20 11:33N 48°48' W 123°14'1 0.6
2014-Oct-20 10:29N 48°48' W 123°13'0 0.0
2014-Oct-20 09:32N 48°48' W 123°13'0 0.0
2014-Oct-20 08:33N 48°48' W 123°13'0 0.0
2014-Oct-20 07:33N 48°48' W 123°13'0 0.0
2014-Oct-20 06:24N 48°48' W 123°13'0 0.0
2014-Oct-20 05:33N 48°48' W 123°13'0 0.0
2014-Oct-20 04:33N 48°48' W 123°13'0 0.0
2014-Oct-20 03:32N 48°48' W 123°13'0 0.0
2014-Oct-20 02:32N 48°48' W 123°13'0 0.0
2014-Oct-20 01:33N 48°48' W 123°13'0 0.0
2014-Oct-20 00:33N 48°48' W 123°13'0 0.0
2014-Oct-19 23:33N 48°48' W 123°13'0 0.0
2014-Oct-19 22:32N 48°48' W 123°13'0 0.0
2014-Oct-19 21:33N 48°48' W 123°13'0 0.0
2014-Oct-19 20:33N 48°48' W 123°13'0 0.0
2014-Oct-19 19:33N 48°48' W 123°13'0 0.1
2014-Oct-19 18:33N 48°48' W 123°13'0 0.0
2014-Oct-19 17:31N 48°48' W 123°13'0 0.0
2014-Oct-19 16:32N 48°48' W 123°13'0 0.0
2014-Oct-19 15:33N 48°48' W 123°13'0 0.0
2014-Oct-19 14:30N 48°48' W 123°13'0 0.0
2014-Oct-19 13:31N 48°48' W 123°13'0 0.0
2014-Oct-19 12:33N 48°48' W 123°13'0 0.0
2014-Oct-19 11:33N 48°48' W 123°13'0 0.0
2014-Oct-19 10:33N 48°48' W 123°13'0 0.0
2014-Oct-19 09:33N 48°48' W 123°13'0 0.0
2014-Oct-19 08:33N 48°48' W 123°13'0 0.0
2014-Oct-19 07:33N 48°48' W 123°13'0 0.0
2014-Oct-19 06:33N 48°48' W 123°13'0 0.0
2014-Oct-19 05:33N 48°48' W 123°13'0 0.0
2014-Oct-19 04:33N 48°48' W 123°13'0 0.0
2014-Oct-19 03:33N 48°48' W 123°13'0 0.0
2014-Oct-19 02:31N 48°48' W 123°13'0 0.0
2014-Oct-19 01:32N 48°48' W 123°13'0 0.0
2014-Oct-19 00:33N 48°48' W 123°13'0 0.0
2014-Oct-18 23:33N 48°48' W 123°13'0 0.0
2014-Oct-18 22:31N 48°48' W 123°13'0 0.0
2014-Oct-18 21:33N 48°48' W 123°13'0 0.0
2014-Oct-18 20:32N 48°48' W 123°13'0 0.0
2014-Oct-18 19:23N 48°48' W 123°13'1 0.7
2014-Oct-18 18:32N 48°48' W 123°14'2 1.6
2014-Oct-18 17:16N 48°49' W 123°17'1 1.4
2014-Oct-18 16:29N 48°49' W 123°18'1 1.2
2014-Oct-18 15:33N 48°50' W 123°20'2 1.9
2014-Oct-18 14:31N 48°51' W 123°22'2 2.0
2014-Oct-18 13:33N 48°52' W 123°25'2 2.0
2014-Oct-18 12:31N 48°53' W 123°27'2 2.0
2014-Oct-18 11:32N 48°55' W 123°29'2 2.0
2014-Oct-18 10:30N 48°56' W 123°31'2 2.0
2014-Oct-18 09:29N 48°57' W 123°34'1 1.5
2014-Oct-18 08:31N 48°59' W 123°35'1 1.3
2014-Oct-18 07:30N 48°60' W 123°36'1 1.5
2014-Oct-18 06:32N 49°01' W 123°37'2 1.4
2014-Oct-18 05:21N 49°02' W 123°39'1 1.2
2014-Oct-18 04:13N 49°03' W 123°40'2 1.4
2014-Oct-18 02:29N 49°05' W 123°42'2 0.6
2014-Oct-17 23:32N 49°07' W 123°43'0 0.0
2014-Oct-17 22:13N 49°07' W 123°43'0 0.0
2014-Oct-17 21:26N 49°07' W 123°43'0 0.0
2014-Oct-17 20:14N 49°07' W 123°43'0 0.0
2014-Oct-17 19:14N 49°07' W 123°43'0 0.0
2014-Oct-17 17:32N 49°07' W 123°43'0 0.0
2014-Oct-17 16:07N 49°07' W 123°43'0 0.0
2014-Oct-17 14:10N 49°07' W 123°43'0 0.0
2014-Oct-17 13:04N 49°07' W 123°43'0 0.0
2014-Oct-17 12:31N 49°07' W 123°43'0 0.0
2014-Oct-17 11:13N 49°07' W 123°43'0 0.0
2014-Oct-17 10:28N 49°07' W 123°43'0 0.1
2014-Oct-17 08:28N 49°07' W 123°43'0 0.2
2014-Oct-17 07:20N 49°07' W 123°43'0 0.1
2014-Oct-17 06:30N 49°07' W 123°43'2 1.2
2014-Oct-17 05:17N 49°05' W 123°42'811.0
2014-Oct-17 04:33N 48°59' W 123°35'1210.9
2014-Oct-17 03:29N 48°51' W 123°22'1011.2
2014-Oct-17 02:33N 48°45' W 123°09'1211.7
2014-Oct-17 01:33N 48°43' W 122°51'8 8.3
2014-Oct-17 00:33N 48°36' W 122°45'9 8.8
2014-Oct-16 23:33N 48°31' W 122°34'8 7.7
2014-Oct-16 22:33N 48°24' W 122°30'0 0.0
2014-Oct-16 21:33N 48°24' W 122°30'0 0.0
2014-Oct-16 20:33N 48°24' W 122°30'0 0.0
2014-Oct-16 19:30N 48°24' W 122°30'0 0.0
2014-Oct-16 18:33N 48°24' W 122°30'0 0.0
2014-Oct-16 17:21N 48°24' W 122°30'0 0.0
2014-Oct-16 16:32N 48°24' W 122°30'0 0.0
2014-Oct-16 15:31N 48°24' W 122°30'0 0.0
2014-Oct-16 14:12N 48°24' W 122°30'0 0.0
2014-Oct-16 13:21N 48°24' W 122°30'0 0.0
2014-Oct-16 12:31N 48°24' W 122°30'0 0.0
2014-Oct-16 11:32N 48°24' W 122°30'0 0.0
2014-Oct-16 10:19N 48°24' W 122°30'0 0.0
2014-Oct-16 09:33N 48°24' W 122°30'0 0.0
2014-Oct-16 08:33N 48°24' W 122°30'0 0.0
2014-Oct-16 07:33N 48°24' W 122°30'0 0.0
2014-Oct-16 06:29N 48°24' W 122°30'0 0.0
2014-Oct-16 05:26N 48°24' W 122°30'0 0.0
2014-Oct-16 04:33N 48°24' W 122°30'  
Track history (hours):
 
Tides and Currents Weather Stations Pressure Air Temp Water Temp Dewpoint Dewpoint Depression Visibility Wind Speed Wind Dir Waves Ship Positions

Swinomish

Owner: DUNLAP TOWING CO, LA CONNER, WA. More information available from US FCC via Universal Licensing System and Coast Guard Vessel Documentation Center.

Last reported at 2014-Oct-26 04:31 UTC. Time now 2014-Oct-26 06:05 UTC.
Position N 48°24' W 122°30'.

Length 15 m; draft 3.5 m.

Type: Tug. MMSI: 366972050.

Date/timePositionNaut miles runAvg speedWind from/ knotsBaromVisibWave heightAir tempDewpointWater temp
2014-Oct-26 04:31N 48°24' W 122°30'0 0.0
2014-Oct-26 03:33N 48°24' W 122°30'0 0.0
2014-Oct-26 02:32N 48°24' W 122°30'0 0.0
2014-Oct-26 01:33N 48°24' W 122°30'0 0.0
2014-Oct-26 00:33N 48°24' W 122°30'0 0.0
2014-Oct-25 23:33N 48°24' W 122°30'0 0.0
2014-Oct-25 21:27N 48°24' W 122°30'0 0.0
2014-Oct-25 20:14N 48°24' W 122°30'0 0.0
2014-Oct-25 19:33N 48°24' W 122°30'0 0.0
2014-Oct-25 18:31N 48°24' W 122°30'0 0.0
2014-Oct-25 17:33N 48°24' W 122°30'0 0.0
2014-Oct-25 16:33N 48°24' W 122°30'0 0.0
2014-Oct-25 15:33N 48°24' W 122°30'0 0.0
2014-Oct-25 14:33N 48°24' W 122°30'0 0.0
2014-Oct-25 13:33N 48°24' W 122°30'19 8.0
2014-Oct-25 11:10N 48°05' W 122°26'711.3
2014-Oct-25 10:33N 48°01' W 122°18'4 3.9
2014-Oct-25 09:33N 47°59' W 122°13'0 0.0
2014-Oct-25 08:33N 47°59' W 122°13'0 0.0
2014-Oct-25 07:33N 47°59' W 122°13'0 0.0
2014-Oct-25 06:33N 47°59' W 122°13'0 0.0
2014-Oct-25 05:33N 47°59' W 122°13'0 0.0
2014-Oct-25 04:33N 47°59' W 122°13'0 0.1
2014-Oct-25 03:33N 47°59' W 122°13'1 1.1
2014-Oct-25 02:33N 47°58' W 122°15'1 1.3
2014-Oct-25 01:33N 47°59' W 122°16'3 2.7
2014-Oct-25 00:32N 48°01' W 122°18'2 2.0
2014-Oct-24 23:33N 48°02' W 122°21'1 1.5
2014-Oct-24 22:33N 48°03' W 122°23'1 1.4
2014-Oct-24 21:33N 48°04' W 122°24'2 1.8
2014-Oct-24 20:32N 48°05' W 122°26'5 1.6
2014-Oct-24 17:16N 48°09' W 122°32'6 1.8
2014-Oct-24 14:05N 48°14' W 122°33'1 1.6
2014-Oct-24 13:32N 48°15' W 122°33'1 1.4
2014-Oct-24 12:32N 48°16' W 122°31'1 1.0
2014-Oct-24 11:33N 48°17' W 122°30'1 0.8
2014-Oct-24 10:33N 48°18' W 122°30'1 0.9
2014-Oct-24 09:31N 48°19' W 122°30'2 1.7
2014-Oct-24 08:30N 48°20' W 122°32'3 2.9
2014-Oct-24 07:31N 48°22' W 122°34'3 2.7
2014-Oct-24 06:29N 48°25' W 122°36'2 1.7
2014-Oct-24 05:08N 48°24' W 122°39'1 0.8
2014-Oct-24 04:18N 48°25' W 122°40'1 0.6
2014-Oct-24 03:26N 48°25' W 122°41'2 1.7
2014-Oct-24 02:33N 48°26' W 122°42'3 2.9
2014-Oct-24 01:33N 48°29' W 122°43'2 1.8
2014-Oct-24 00:33N 48°30' W 122°45'1 1.2
2014-Oct-23 23:33N 48°31' W 122°46'1 1.3
2014-Oct-23 22:33N 48°32' W 122°48'1 0.8
2014-Oct-23 21:33N 48°32' W 122°49'1 0.7
2014-Oct-23 20:33N 48°32' W 122°50'0 0.3
2014-Oct-23 19:33N 48°32' W 122°50'0 0.4
2014-Oct-23 18:33N 48°32' W 122°50'1 1.0
2014-Oct-23 17:33N 48°33' W 122°51'1 1.4
2014-Oct-23 16:33N 48°34' W 122°52'1 1.2
2014-Oct-23 15:33N 48°35' W 122°53'1 1.5
2014-Oct-23 14:33N 48°35' W 122°56'2 1.6
2014-Oct-23 13:33N 48°36' W 122°58'1 1.0
2014-Oct-23 12:33N 48°36' W 122°59'1 0.9
2014-Oct-23 11:32N 48°36' W 123°01'1 0.6
2014-Oct-23 10:33N 48°36' W 123°00'0 0.0
2014-Oct-23 09:33N 48°36' W 123°00'0 0.0
2014-Oct-23 08:30N 48°36' W 123°00'0 0.0
2014-Oct-23 07:33N 48°36' W 123°00'0 0.0
2014-Oct-23 06:33N 48°36' W 123°00'0 0.0
2014-Oct-23 05:32N 48°36' W 123°00'0 0.0
2014-Oct-23 04:33N 48°36' W 123°00'0 0.0
2014-Oct-23 03:33N 48°36' W 123°00'0 0.0
2014-Oct-23 02:33N 48°36' W 123°00'0 0.0
2014-Oct-23 01:25N 48°36' W 123°00'0 0.0
2014-Oct-23 00:09N 48°36' W 123°00'0 0.0
2014-Oct-22 23:24N 48°36' W 123°00'0 0.0
2014-Oct-22 22:31N 48°36' W 123°00'0 0.0
2014-Oct-22 21:33N 48°36' W 123°00'0 0.0
2014-Oct-22 20:29N 48°36' W 123°00'0 0.0
2014-Oct-22 19:33N 48°36' W 123°00'0 0.0
2014-Oct-22 18:26N 48°36' W 123°00'0 0.0
2014-Oct-22 17:23N 48°36' W 123°00'0 0.0
2014-Oct-22 16:24N 48°36' W 123°00'0 0.0
2014-Oct-22 15:33N 48°36' W 123°00'0 0.0
2014-Oct-22 14:31N 48°36' W 123°00'0 0.0
2014-Oct-22 13:33N 48°36' W 123°00'0 0.0
2014-Oct-22 12:33N 48°36' W 123°00'0 0.0
2014-Oct-22 11:33N 48°36' W 123°00'0 0.0
2014-Oct-22 10:31N 48°36' W 123°00'0 0.0
2014-Oct-22 09:33N 48°36' W 123°00'0 0.0
2014-Oct-22 08:33N 48°36' W 123°00'0 0.0
2014-Oct-22 07:33N 48°36' W 123°00'0 0.0
2014-Oct-22 06:33N 48°36' W 123°00'0 0.0
2014-Oct-22 05:33N 48°36' W 123°00'0 0.0
2014-Oct-22 04:33N 48°36' W 123°00'0 0.0
2014-Oct-22 03:33N 48°36' W 123°00'0 0.0
2014-Oct-22 02:33N 48°36' W 123°00'0 0.0
2014-Oct-22 01:33N 48°36' W 123°00'0 0.0
2014-Oct-22 00:33N 48°36' W 123°00'0 0.0
2014-Oct-21 23:33N 48°36' W 123°00'0 0.0
2014-Oct-21 22:33N 48°36' W 123°00'0 0.0
2014-Oct-21 21:33N 48°36' W 123°00'0 0.0
2014-Oct-21 20:33N 48°36' W 123°00'0 0.0
2014-Oct-21 19:33N 48°36' W 123°00'0 0.0
2014-Oct-21 18:33N 48°36' W 123°00'0 0.0
2014-Oct-21 17:33N 48°36' W 123°00'0 0.0
2014-Oct-21 16:33N 48°36' W 123°00'0 0.0
2014-Oct-21 15:33N 48°36' W 123°00'0 0.0
2014-Oct-21 14:33N 48°36' W 123°00'0 0.0
2014-Oct-21 13:33N 48°36' W 123°00'0 0.0
2014-Oct-21 12:33N 48°36' W 123°00'0 0.0
2014-Oct-21 11:33N 48°36' W 123°00'0 0.0
2014-Oct-21 10:33N 48°36' W 123°00'0 0.0
2014-Oct-21 09:33N 48°36' W 123°00'0 0.0
2014-Oct-21 08:33N 48°36' W 123°00'0 0.0
2014-Oct-21 07:33N 48°36' W 123°00'0 0.0
2014-Oct-21 06:33N 48°36' W 123°00'0 0.0
2014-Oct-21 05:33N 48°36' W 123°00'0 0.0
2014-Oct-21 04:33N 48°36' W 123°00'0 0.0
2014-Oct-21 03:33N 48°36' W 123°00'0 0.0
2014-Oct-21 02:33N 48°36' W 123°00'1 1.0
2014-Oct-21 01:33N 48°37' W 123°02'2 1.8
2014-Oct-21 00:33N 48°38' W 123°02'2 2.4
2014-Oct-20 23:33N 48°40' W 122°60'2 1.9
2014-Oct-20 22:33N 48°42' W 122°59'2 1.7
2014-Oct-20 21:33N 48°44' W 122°59'2 2.0
2014-Oct-20 20:29N 48°44' W 123°03'3 3.1
2014-Oct-20 19:23N 48°42' W 123°07'1 1.6
2014-Oct-20 18:33N 48°43' W 123°09'1 0.9
2014-Oct-20 17:33N 48°44' W 123°09'1 1.1
2014-Oct-20 16:33N 48°45' W 123°09'1 1.1
2014-Oct-20 15:33N 48°45' W 123°10'1 0.9
2014-Oct-20 14:33N 48°46' W 123°12'1 0.7
2014-Oct-20 13:33N 48°46' W 123°13'1 0.9
2014-Oct-20 12:33N 48°47' W 123°14'1 1.1
2014-Oct-20 11:33N 48°48' W 123°14'1 0.6
2014-Oct-20 10:29N 48°48' W 123°13'0 0.0
2014-Oct-20 09:32N 48°48' W 123°13'0 0.0
2014-Oct-20 08:33N 48°48' W 123°13'0 0.0
2014-Oct-20 07:33N 48°48' W 123°13'0 0.0
2014-Oct-20 06:24N 48°48' W 123°13'0 0.0
2014-Oct-20 05:33N 48°48' W 123°13'0 0.0
2014-Oct-20 04:33N 48°48' W 123°13'0 0.0
2014-Oct-20 03:32N 48°48' W 123°13'0 0.0
2014-Oct-20 02:32N 48°48' W 123°13'0 0.0
2014-Oct-20 01:33N 48°48' W 123°13'0 0.0
2014-Oct-20 00:33N 48°48' W 123°13'0 0.0
2014-Oct-19 23:33N 48°48' W 123°13'0 0.0
2014-Oct-19 22:32N 48°48' W 123°13'0 0.0
2014-Oct-19 21:33N 48°48' W 123°13'0 0.0
2014-Oct-19 20:33N 48°48' W 123°13'0 0.0
2014-Oct-19 19:33N 48°48' W 123°13'0 0.1
2014-Oct-19 18:33N 48°48' W 123°13'0 0.0
2014-Oct-19 17:31N 48°48' W 123°13'0 0.0
2014-Oct-19 16:32N 48°48' W 123°13'0 0.0
2014-Oct-19 15:33N 48°48' W 123°13'0 0.0
2014-Oct-19 14:30N 48°48' W 123°13'0 0.0
2014-Oct-19 13:31N 48°48' W 123°13'0 0.0
2014-Oct-19 12:33N 48°48' W 123°13'0 0.0
2014-Oct-19 11:33N 48°48' W 123°13'0 0.0
2014-Oct-19 10:33N 48°48' W 123°13'0 0.0
2014-Oct-19 09:33N 48°48' W 123°13'0 0.0
2014-Oct-19 08:33N 48°48' W 123°13'0 0.0
2014-Oct-19 07:33N 48°48' W 123°13'0 0.0
2014-Oct-19 06:33N 48°48' W 123°13'0 0.0
2014-Oct-19 05:33N 48°48' W 123°13'0 0.0
2014-Oct-19 04:33N 48°48' W 123°13'0 0.0
2014-Oct-19 03:33N 48°48' W 123°13'0 0.0
2014-Oct-19 02:31N 48°48' W 123°13'0 0.0
2014-Oct-19 01:32N 48°48' W 123°13'0 0.0
2014-Oct-19 00:33N 48°48' W 123°13'0 0.0
2014-Oct-18 23:33N 48°48' W 123°13'0 0.0
2014-Oct-18 22:31N 48°48' W 123°13'0 0.0
2014-Oct-18 21:33N 48°48' W 123°13'0 0.0
2014-Oct-18 20:32N 48°48' W 123°13'0 0.0
2014-Oct-18 19:23N 48°48' W 123°13'1 0.7
2014-Oct-18 18:32N 48°48' W 123°14'2 1.6
2014-Oct-18 17:16N 48°49' W 123°17'1 1.4
2014-Oct-18 16:29N 48°49' W 123°18'1 1.2
2014-Oct-18 15:33N 48°50' W 123°20'2 1.9
2014-Oct-18 14:31N 48°51' W 123°22'2 2.0
2014-Oct-18 13:33N 48°52' W 123°25'2 2.0
2014-Oct-18 12:31N 48°53' W 123°27'2 2.0
2014-Oct-18 11:32N 48°55' W 123°29'2 2.0
2014-Oct-18 10:30N 48°56' W 123°31'2 2.0
2014-Oct-18 09:29N 48°57' W 123°34'1 1.5
2014-Oct-18 08:31N 48°59' W 123°35'1 1.3
2014-Oct-18 07:30N 48°60' W 123°36'1 1.5
2014-Oct-18 06:32N 49°01' W 123°37'2 1.4
2014-Oct-18 05:21N 49°02' W 123°39'1 1.2
2014-Oct-18 04:13N 49°03' W 123°40'2 1.4
2014-Oct-18 02:29N 49°05' W 123°42'2 0.6
2014-Oct-17 23:32N 49°07' W 123°43'0 0.0
2014-Oct-17 22:13N 49°07' W 123°43'0 0.0
2014-Oct-17 21:26N 49°07' W 123°43'0 0.0
2014-Oct-17 20:14N 49°07' W 123°43'0 0.0
2014-Oct-17 19:14N 49°07' W 123°43'0 0.0
2014-Oct-17 17:32N 49°07' W 123°43'0 0.0
2014-Oct-17 16:07N 49°07' W 123°43'0 0.0
2014-Oct-17 14:10N 49°07' W 123°43'0 0.0
2014-Oct-17 13:04N 49°07' W 123°43'0 0.0
2014-Oct-17 12:31N 49°07' W 123°43'0 0.0
2014-Oct-17 11:13N 49°07' W 123°43'0 0.0
2014-Oct-17 10:28N 49°07' W 123°43'0 0.1
2014-Oct-17 08:28N 49°07' W 123°43'0 0.2
2014-Oct-17 07:20N 49°07' W 123°43'0 0.1
2014-Oct-17 06:30N 49°07' W 123°43'2 1.2
2014-Oct-17 05:17N 49°05' W 123°42'811.0
2014-Oct-17 04:33N 48°59' W 123°35'1210.9
2014-Oct-17 03:29N 48°51' W 123°22'1011.2
2014-Oct-17 02:33N 48°45' W 123°09'1211.7
2014-Oct-17 01:33N 48°43' W 122°51'8 8.3
2014-Oct-17 00:33N 48°36' W 122°45'9 8.8
2014-Oct-16 23:33N 48°31' W 122°34'8 7.7
2014-Oct-16 22:33N 48°24' W 122°30'0 0.0
2014-Oct-16 21:33N 48°24' W 122°30'0 0.0
2014-Oct-16 20:33N 48°24' W 122°30'0 0.0
2014-Oct-16 19:30N 48°24' W 122°30'0 0.0
2014-Oct-16 18:33N 48°24' W 122°30'0 0.0
2014-Oct-16 17:21N 48°24' W 122°30'0 0.0
2014-Oct-16 16:32N 48°24' W 122°30'0 0.0
2014-Oct-16 15:31N 48°24' W 122°30'0 0.0
2014-Oct-16 14:12N 48°24' W 122°30'0 0.0
2014-Oct-16 13:21N 48°24' W 122°30'0 0.0
2014-Oct-16 12:31N 48°24' W 122°30'0 0.0
2014-Oct-16 11:32N 48°24' W 122°30'0 0.0
2014-Oct-16 10:19N 48°24' W 122°30'0 0.0
2014-Oct-16 09:33N 48°24' W 122°30'0 0.0
2014-Oct-16 08:33N 48°24' W 122°30'0 0.0
2014-Oct-16 07:33N 48°24' W 122°30'0 0.0
2014-Oct-16 06:29N 48°24' W 122°30'0 0.0
2014-Oct-16 05:26N 48°24' W 122°30'0 0.0
2014-Oct-16 04:33N 48°24' W 122°30'  

Dump ship's entire track history